Main page
Satellite images 10-day forecastsClimateMarine weather Cyclones Lightning AirportsFAQ Newsletter About
Weather : Europe Africa North America South America Asia Australia-Oceania Others
Languages Contact

Tehran, Iran

Mehrabad International Airport

latitude: 35-41N, longitude: 051-21E, elevation: 1204 m


METAR: OIII 030400Z 24004KT 9999 FEW040 21/07 Q1021 A3015 NOSIG
TAF: OIII 022300Z 0300/0406 18005MPS 8000 FEW035 SCT100 TEMPO 0312/0321 24008MPS FEW030CB SCT035 BKN100

Time: 08:56 (04:26 UTC)

Current weather observation

The report was made 26 minutes ago, at 04:00 UTC
Wind 4 kt from the West/Southwest
Temperature 21°C
Humidity 40%
Pressure 1021 hPa
Visibility 10 km or more
Few clouds at a height of 4000 ft

Change units

Forecast

The report was made 5 hours and 26 minutes ago, at 23:00 UTC
Forecast valid from 03 at 00 UTC to 04 at 06 UTC
Wind 10 kt from the South
Visibility: 8000 m
Few clouds at a height of 3500 ft
Scattered clouds at a height of 10000 ft
Temporary
from 03 at 12 UTC to 03 at 21 UTC
Wind 16 kt from the West/Southwest
Few clouds at a height of 3000 ft, Cumulonimbus.
Scattered clouds at a height of 3500 ft
Broken clouds at a height of 10000 ft
The information on this site is subject to a disclaimer
Weather : Europe Africa North America South America Asia Australia-Oceania Others
Satellite images 10-day forecastsClimateMarine weather Cyclones Lightning AirportsFAQ Languages Contact Newsletter About